Vremea acum in Blaj - Romania

Vrei sa afli care e starea vremii acum in Alba - Romania? Dorim sa iti furnizam starea vremii pentru Alba - Romania. Starea vremii Alba - Romania pentru astazi.

Vremea acum in Blaj

Temperatura: 13.3 °C

Este: Senin
Se simte ca: 13.9 °C
Innorat: 0 %
Precipitatii: 0 %
Presiune atmosferica: 1017 hPa
Umiditate: 94%
Vizibilitate: 8 km
Vantul bate din SW cu 3.6 km/h

Evolutia vremii in Blaj pe ore

Ora: 02:00
Temperatura: 8.9°C
Sansa de precipitatii: 0%
Ora Descriere Temp Se simte Precipitatii Umiditate Vant
00:00Senin9.8°9.5°0%90%SW 5 KM/H
01:00Senin13.3°9.4°0%94%SW 3.6 KM/H
02:008.9°8.9°0%89%WSW 4 KM/H
03:00Senin8.4°8.4°0%89%SW 2.5 KM/H
04:00Senin8.2°8.2°0%90%WSW 2.9 KM/H
05:00Senin7.8°7.8°0%90%WSW 3.6 KM/H
06:00Senin7.5°7.7°0%90%SW 3.2 KM/H
07:00Senin8.9°8.9°0%90%SW 4 KM/H
08:00Senin12.1°12.8°0%85%SW 3.2 KM/H
09:00Senin14°14.3°0%80%SSW 5 KM/H
10:00Patchy rain nearby15.9°15.9°84%75%SW 6.5 KM/H
11:00Patchy rain nearby17.6°17.6°100%67%SW 6.8 KM/H
12:00Patchy rain nearby19.5°19.5°76%55%WSW 3.6 KM/H
13:00Patchy rain nearby20.8°20.8°88%48%SSW 1.4 KM/H
14:00Patchy rain nearby21.5°21.5°100%46%SW 1.8 KM/H
15:00Thundery outbreaks in nearby21.2°21.3°100%47%W 6.8 KM/H
16:00Thundery outbreaks in nearby18.3°18.3°100%62%WNW 8.6 KM/H
17:00Thundery outbreaks in nearby17.2°17.2°100%65%N 5.8 KM/H
18:00Patchy rain nearby19.3°19.3°65%60%NNE 7.2 KM/H
19:00Patchy rain nearby19°19°100%66%NE 7.2 KM/H
20:00Senin15.3°15.3°0%74%NE 6.5 KM/H
21:00Senin12.5°12.7°0%79%NE 4.7 KM/H
22:00Senin11.7°11.7°0%81%NE 2.5 KM/H
23:00Senin11°11°0%82%E 0.4 KM/H




tutorials